• Join FlightAware (Why Join?)
  • Login
  • US Flag 
08:54AM EST


 

Airport Tracker/Info


-or-


 

Live Flight TrackerFlight Track Log ✈ WIG7413 ✈ 16-May-2013 ✈ KALB - KEWR

Flight Track Log - Related Links

Times and Time Zones

All times are in EDT time to prevent confusion due to time zone crossing. See the WIG7413 flight status page for this flight to view local times or setup timezone preferences in your user account.

Time Position Orientation Groundspeed Altitude Reporting Facility
EDT Latitude Longitude Course Direction KTS MPH feet Rate Location/Type
10:15PM 42.7339 -73.8081 185° South 87 100 1,000  Level Boston Center
10:16PM 42.7131 -73.8106 185° South 95 109 1,900 1,140 Climbing Boston Center
10:17PM 42.6942 -73.8300 217° Southwest 88 101 3,100 1,140 Climbing Boston Center
10:18PM 42.6689 -73.8492 209° Southwest 112 129 4,200 1,140 Climbing Boston Center
10:19PM 42.6417 -73.8683 207° Southwest 117 135 5,500 1,140 Climbing Boston Center
10:20PM 42.6142 -73.8903 210° Southwest 110 127 6,600 1,140 Climbing Boston Center
10:21PM 42.5867 -73.9122 210° Southwest 108 124 7,800 660 Climbing Boston Center
10:22PM 42.5553 -73.9367 210° Southwest 125 144 8,000 60 Climbing Boston Center
10:23PM 42.5172 -73.9639 208° Southwest 157 181 8,000  Level Boston Center
10:24PM 42.4794 -73.9969 213° Southwest 156 180 8,000  Level Boston Center
10:25PM 42.4456 -74.0214 208° Southwest 152 175 8,000  Level Boston Center
10:26PM 42.4056 -74.0511 209° Southwest 145 167 8,000  Level Boston Center
10:27PM 42.3697 -74.0783 209° Southwest 146 168 8,000 60 Level Boston Center
10:27PM 42.3550 -74.0892 209° Southwest 151 174 8,100 60 Climbing Boston Center
10:28PM 42.3192 -74.1192 212° Southwest 158 182 8,100  Level Boston Center
10:29PM 42.2875 -74.1408 207° Southwest 152 175 8,100  Level Boston Center
10:30PM 42.2475 -74.1733 211° Southwest 152 175 8,100  Level Boston Center
10:31PM 42.2139 -74.1922 203° Southwest 152 175 8,100  Level Boston Center
10:32PM 42.1697 -74.2133 200° South 157 181 8,100  Level Boston Center
10:33PM 42.1342 -74.2289 198° South 157 181 8,100  Level Boston Center
10:34PM 42.0878 -74.2528 201° Southwest 157 181 8,100 -60 Level Boston Center
10:35PM 42.0522 -74.2714 201° Southwest 157 181 8,000 -60 Descending Boston Center
10:36PM 42.0058 -74.2925 199° South 157 181 8,000  Level Boston Center
10:37PM 41.9681 -74.3108 200° South 157 181 8,000 -60 Level Boston Center
10:38PM 41.9239 -74.3347 202° Southwest 162 186 7,900 -300 Descending Boston Center
10:39PM 41.8861 -74.3558 203° Southwest 162 186 7,400 -480 Descending Boston Center
10:40PM 41.8400 -74.3767 199° South 168 193 7,000 -240 Descending Boston Center
10:41PM 41.8019 -74.3950 200° South 168 193 7,000  Level Boston Center
10:42PM 41.7578 -74.4161 200° South 163 188 7,000  Level Boston Center
10:43PM 41.7242 -74.4344 202° Southwest 157 181 7,000  Level Boston Center
10:44PM 41.6800 -74.4581 202° Southwest 157 181 7,000  Level Boston Center
10:45PM 41.6442 -74.4764 201° Southwest 157 181 7,000 -120 Level Boston Center
10:46PM 41.5981 -74.4972 199° South 157 181 6,800 -420 Descending Boston Center
10:47PM 41.5603 -74.5181 202° Southwest 157 181 6,200 -360 Descending Boston Center
10:48PM 41.5139 -74.5414 201° Southwest 162 186 6,100 -60 Descending Boston Center
10:49PM 41.4781 -74.5569 198° South 162 186 6,100  Level Boston Center
10:50PM 41.4317 -74.5831 203° Southwest 162 186 6,100 -60 Level Boston Center
10:51PM 41.3939 -74.6011 200° South 162 186 6,000 -60 Descending Boston Center
10:52PM 41.3333 -74.6167 191° South 163 188 6,000  Level New York TRACON
10:53PM 41.3000 -74.6333 201° Southwest 156 180 6,000 -240 Level New York TRACON
10:54PM 41.2500 -74.6167 166° South 184 212 5,600 -600 Descending New York TRACON
10:55PM 41.2000 -74.6000 166° South 196 226 4,900 -660 Descending New York TRACON
10:56PM 41.1500 -74.5667 153° Southeast 201 231 4,300 -480 Descending New York TRACON
10:57PM 41.0833 -74.5500 169° South 196 226 4,000 -180 Descending New York TRACON
10:58PM 41.0833 -74.4833 90° East 192 221 4,000  Level New York TRACON
10:59PM 41.0833 -74.4167 90° East 181 208 4,100  Climbing New York TRACON
11:00PM 41.0500 -74.3667 131° Southeast 194 223 4,000  Descending New York TRACON
11:01PM 41.0167 -74.3167 131° Southeast 192 221 4,100  Climbing New York TRACON
11:02PM 40.9833 -74.2500 124° Southeast 197 227 4,000 -60 Descending New York TRACON
11:04PM 40.9333 -74.2000 143° Southeast 201 231 4,000 -300 Level New York TRACON
11:04PM 40.9000 -74.1500 131° Southeast 204 235 3,500 -540 Descending New York TRACON
11:05PM 40.8667 -74.1000 131° Southeast 210 242 3,000 -420 Descending New York TRACON
11:06PM 40.8167 -74.0833 166° South 193 222 2,700 -780 Descending New York TRACON
11:07PM 40.7667 -74.1167 207° Southwest 185 213 1,600 -1,140 Descending New York TRACON
11:08PM 40.7167 -74.1500 207° Southwest 178 205 600 -1,020 Descending New York TRACON
11:10PM 40.6925 -74.1687 169° South  Level Estimated
11:17PM 40.6925 -74.1687 169° South  Level Estimated
11:18PM 40.6925 -74.1687 169° South  Level Estimated